Cabo Verde, Brazil
Current Conditions -  °F | °C
As of 12:00 PM on Sunday 23 Nov 2014 (Local Time) from SBPC Reporting Station
Haze Haze  
Wind Chill: 68°   Ceiling: 1000
Heat Index: 68°   Visibility: 3mi
Dew Point: 68°   Wind: 7mph
Humidity: 100%   Direction: 230°SW
Pressure: 30.12"   Gusts: NA
Location:  21.47°S, 46.4°W
Report Text: SBPC 231400Z 23006KT 5000 BR BKN010 OVC070 20/20 Q1020
Loading
Personal Weather Stations






























Interactive Weather Map New forecast layout! Learn more

10-Day Weather Forecast

Advertisements
Track Severe Weather on mobile